createdAt,value
2019-01-27T00:01:34.419Z,2.50
2019-01-27T00:04:07.071Z,2.70
2019-01-27T00:06:38.512Z,2.65
2019-01-27T00:09:12.804Z,2.52
2019-01-27T00:11:44.244Z,3.37
2019-01-27T00:14:15.709Z,2.27
2019-01-27T00:16:47.114Z,2.67
2019-01-27T00:19:18.477Z,2.47
2019-01-27T00:21:49.958Z,2.45
2019-01-27T00:24:21.486Z,3.90
2019-01-27T00:26:52.910Z,2.83
2019-01-27T00:29:24.351Z,2.60
2019-01-27T00:31:55.792Z,3.45
2019-01-27T00:34:27.308Z,2.75
2019-01-27T00:36:58.765Z,3.40
2019-01-27T00:39:30.148Z,2.50
2019-01-27T00:42:01.631Z,3.25
2019-01-27T00:44:33.167Z,2.80
2019-01-27T00:47:04.621Z,2.45
2019-01-27T00:49:36.100Z,2.80
2019-01-27T00:52:07.537Z,2.98
2019-01-27T00:54:39.091Z,3.10
2019-01-27T00:57:10.762Z,2.35
2019-01-27T00:59:42.190Z,2.02
2019-01-27T01:02:13.595Z,2.65
2019-01-27T01:04:45.101Z,2.37
2019-01-27T01:07:17.670Z,2.30
2019-01-27T01:09:49.120Z,2.15
2019-01-27T01:12:20.498Z,2.42
2019-01-27T01:14:52.003Z,2.62
2019-01-27T01:17:23.513Z,2.35
2019-01-27T01:19:54.955Z,2.22
2019-01-27T01:22:26.560Z,2.30
2019-01-27T01:24:58.111Z,2.70
2019-01-27T01:27:29.572Z,2.45
2019-01-27T01:30:01.060Z,2.40
2019-01-27T01:32:32.711Z,2.58
2019-01-27T01:35:04.632Z,2.42
2019-01-27T01:37:36.034Z,2.00
2019-01-27T01:40:10.564Z,2.10
2019-01-27T01:42:41.996Z,2.50
2019-01-27T01:45:25.816Z,2.20
2019-01-27T01:47:57.298Z,2.45
2019-01-27T01:50:28.812Z,2.33
2019-01-27T01:53:00.363Z,1.80
2019-01-27T01:55:32.001Z,2.17
2019-01-27T01:58:03.515Z,2.45
2019-01-27T02:00:34.989Z,1.95
2019-01-27T02:03:06.461Z,2.15
2019-01-27T02:05:37.963Z,1.92
2019-01-27T02:08:09.441Z,2.00
2019-01-27T02:10:40.929Z,1.90
2019-01-27T02:13:13.180Z,2.20
2019-01-27T02:16:08.389Z,2.50
2019-01-27T02:18:41.288Z,2.00
2019-01-27T02:21:12.847Z,2.40
2019-01-27T02:23:44.289Z,2.00
2019-01-27T02:26:15.728Z,2.12
2019-01-27T02:28:47.207Z,2.10
2019-01-27T02:31:18.692Z,1.80
2019-01-27T02:34:15.301Z,2.12
2019-01-27T02:36:50.792Z,1.60
2019-01-27T02:39:24.475Z,2.10
2019-01-27T02:42:35.200Z,2.10
2019-01-27T02:49:24.569Z,1.80
2019-01-27T02:52:44.295Z,1.60
2019-01-27T02:59:28.712Z,2.27
2019-01-27T03:02:06.160Z,1.65
2019-01-27T03:05:09.024Z,1.90
2019-01-27T03:08:10.375Z,2.37
2019-01-27T03:11:09.729Z,1.90
2019-01-27T03:13:42.807Z,1.85
2019-01-27T03:16:15.947Z,1.75
2019-01-27T03:18:47.572Z,1.70
2019-01-27T03:22:27.091Z,1.75
2019-01-27T03:25:55.098Z,2.10
2019-01-27T03:32:09.796Z,2.80
2019-01-27T03:35:08.139Z,2.10
2019-01-27T03:38:45.934Z,2.05
2019-01-27T03:41:58.702Z,1.50
2019-01-27T03:44:36.687Z,1.60
2019-01-27T03:47:24.734Z,1.67
2019-01-27T03:50:29.166Z,2.02
2019-01-27T03:53:31.851Z,1.77
2019-01-27T03:56:39.908Z,1.62
2019-01-27T03:59:21.110Z,1.70
2019-01-27T04:02:06.186Z,1.70
2019-01-27T04:05:02.757Z,2.25
2019-01-27T04:07:50.266Z,2.10
2019-01-27T04:10:56.265Z,1.90
2019-01-27T04:14:09.632Z,1.50
2019-01-27T04:17:13.103Z,1.87
2019-01-27T04:21:32.180Z,1.50
2019-01-27T04:23:56.090Z,1.75
2019-01-27T04:27:32.065Z,1.55
2019-01-27T04:30:04.320Z,1.40
2019-01-27T04:33:00.295Z,1.90
2019-01-27T04:36:28.203Z,1.50
2019-01-27T04:42:52.580Z,1.35
2019-01-27T04:46:12.038Z,1.90
2019-01-27T04:49:45.130Z,1.52
2019-01-27T04:52:38.970Z,1.35
2019-01-27T04:55:12.925Z,1.50
2019-01-27T04:57:47.672Z,1.50
2019-01-27T05:00:22.219Z,1.40
2019-01-27T05:03:02.635Z,1.60
2019-01-27T05:05:34.054Z,1.32
2019-01-27T05:08:05.890Z,1.20
2019-01-27T05:10:39.771Z,1.30
2019-01-27T05:13:12.998Z,1.60
2019-01-27T05:15:45.744Z,1.30
2019-01-27T05:18:19.581Z,1.40
2019-01-27T05:20:53.756Z,1.50
2019-01-27T05:23:29.944Z,1.57
2019-01-27T05:26:02.656Z,1.50
2019-01-27T05:28:35.497Z,1.62
2019-01-27T05:31:09.455Z,1.60
2019-01-27T05:33:43.663Z,1.32
2019-01-27T05:36:15.508Z,1.50
2019-01-27T05:38:46.863Z,1.30
2019-01-27T05:41:18.241Z,1.25
2019-01-27T05:43:49.679Z,1.40
2019-01-27T05:46:21.163Z,1.25
2019-01-27T05:48:52.728Z,1.32
2019-01-27T05:51:24.268Z,1.10
2019-01-27T05:53:55.758Z,1.40
2019-01-27T05:56:27.175Z,1.35
2019-01-27T05:58:58.675Z,1.35
2019-01-27T06:01:30.170Z,1.45
2019-01-27T06:04:01.675Z,1.65
2019-01-27T06:06:33.145Z,1.30
2019-01-27T06:09:07.753Z,1.25
2019-01-27T06:11:39.807Z,1.40
2019-01-27T06:14:13.187Z,1.40
2019-01-27T06:16:49.073Z,1.32
2019-01-27T06:19:24.660Z,1.37
2019-01-27T06:21:59.501Z,1.20
2019-01-27T06:24:32.823Z,1.30
2019-01-27T06:27:05.886Z,1.70
2019-01-27T06:29:41.690Z,1.27
2019-01-27T06:32:31.305Z,1.20
2019-01-27T06:35:06.253Z,1.30
2019-01-27T06:37:58.326Z,1.50
2019-01-27T06:41:06.962Z,1.30
2019-01-27T06:43:54.387Z,1.50
2019-01-27T06:46:53.374Z,1.52
2019-01-27T06:49:38.756Z,1.70
2019-01-27T06:52:27.449Z,1.45
2019-01-27T06:55:10.986Z,1.25
2019-01-27T06:57:42.750Z,1.45
2019-01-27T07:00:46.638Z,1.42
2019-01-27T07:03:44.868Z,1.30
2019-01-27T07:07:08.526Z,1.50
2019-01-27T07:10:00.660Z,1.40
2019-01-27T07:12:48.628Z,1.35
2019-01-27T07:15:46.912Z,1.90
2019-01-27T07:18:37.141Z,1.80
2019-01-27T07:21:16.347Z,1.65
2019-01-27T07:24:19.010Z,1.55
2019-01-27T07:27:09.115Z,1.32
2019-01-27T07:29:56.681Z,1.20
2019-01-27T07:32:45.841Z,1.20
2019-01-27T07:35:42.438Z,1.40
2019-01-27T07:38:31.520Z,1.62
2019-01-27T07:41:18.215Z,2.00
2019-01-27T07:44:00.676Z,1.42
2019-01-27T07:46:44.583Z,1.40
2019-01-27T07:49:35.749Z,2.67
2019-01-27T07:52:26.540Z,1.67
2019-01-27T07:55:16.869Z,1.80
2019-01-27T07:58:19.694Z,1.67
2019-01-27T08:01:02.799Z,2.10
2019-01-27T08:03:43.380Z,2.27
2019-01-27T08:06:32.422Z,2.12
2019-01-27T08:09:36.211Z,1.80
2019-01-27T08:12:26.518Z,2.00
2019-01-27T08:15:22.634Z,1.90
2019-01-27T08:18:13.824Z,2.00
2019-01-27T08:21:06.966Z,2.50
2019-01-27T08:24:03.444Z,2.58
2019-01-27T08:27:12.135Z,1.85
2019-01-27T08:30:03.141Z,2.35
2019-01-27T08:32:48.550Z,2.65
2019-01-27T08:35:37.311Z,2.65
2019-01-27T08:38:18.487Z,1.95
2019-01-27T08:41:03.492Z,1.95
2019-01-27T08:43:44.702Z,2.08
2019-01-27T08:46:27.296Z,2.55
2019-01-27T08:48:58.709Z,2.10
2019-01-27T08:51:30.004Z,1.70
2019-01-27T08:54:01.567Z,1.92
2019-01-27T08:56:32.978Z,2.12
2019-01-27T08:59:04.475Z,2.25
2019-01-27T09:01:57.843Z,5.75
2019-01-27T09:04:34.133Z,2.40
2019-01-27T09:07:25.300Z,1.92
2019-01-27T09:10:21.653Z,2.10
2019-01-27T09:13:11.268Z,2.00
2019-01-27T09:16:00.555Z,2.40
2019-01-27T09:19:08.733Z,2.30
2019-01-27T09:21:53.274Z,1.90
2019-01-27T09:24:46.182Z,2.30
2019-01-27T09:27:32.183Z,2.60
2019-01-27T09:30:11.579Z,2.10
2019-01-27T09:32:57.333Z,2.08
2019-01-27T09:35:48.109Z,2.10
2019-01-27T09:38:36.222Z,2.52
2019-01-27T09:41:35.526Z,2.25
2019-01-27T09:44:24.204Z,2.20
2019-01-27T09:47:14.625Z,2.80
2019-01-27T09:50:10.636Z,2.40
2019-01-27T09:53:01.129Z,2.58
2019-01-27T09:55:44.112Z,2.35
2019-01-27T09:58:34.583Z,2.25
2019-01-27T10:01:12.882Z,2.90
2019-01-27T10:03:59.958Z,2.15
2019-01-27T10:06:42.122Z,2.10
2019-01-27T10:09:38.719Z,2.65
2019-01-27T10:12:32.115Z,2.70
2019-01-27T10:15:21.171Z,2.17
2019-01-27T10:18:01.887Z,1.87
2019-01-27T10:20:41.277Z,2.20
2019-01-27T10:23:30.596Z,2.50
2019-01-27T10:26:12.051Z,2.80
2019-01-27T10:29:05.818Z,2.67
2019-01-27T10:31:59.492Z,3.15
2019-01-27T10:34:43.184Z,2.00
2019-01-27T10:40:20.372Z,2.30
2019-01-27T10:43:04.473Z,1.85
2019-01-27T10:46:37.110Z,2.10
2019-01-27T10:49:27.466Z,1.60
2019-01-27T10:52:05.542Z,1.95
2019-01-27T10:55:02.278Z,1.60
2019-01-27T10:57:57.315Z,1.87
2019-01-27T11:00:50.698Z,1.53
2019-01-27T11:03:32.665Z,1.70
2019-01-27T11:06:23.155Z,1.52
2019-01-27T11:09:12.090Z,1.90
2019-01-27T11:12:08.892Z,1.80
2019-01-27T11:15:00.578Z,1.70
2019-01-27T11:17:57.027Z,1.90
2019-01-27T11:20:40.095Z,1.85
2019-01-27T11:23:19.791Z,1.57
2019-01-27T11:26:16.159Z,2.20
2019-01-27T11:29:05.046Z,1.60
2019-01-27T11:31:54.466Z,1.50
2019-01-27T11:34:36.948Z,1.80
2019-01-27T11:37:30.411Z,1.85
2019-01-27T11:54:35.385Z,1.40
2019-01-27T11:57:28.441Z,1.32
2019-01-27T12:00:17.999Z,1.50
2019-01-27T12:03:22.095Z,1.70
2019-01-27T12:06:13.683Z,1.40
2019-01-27T12:08:43.585Z,1.60
2019-01-27T12:11:29.872Z,1.30
2019-01-27T12:31:07.130Z,1.50
2019-01-27T12:33:38.688Z,2.00
2019-01-27T12:36:26.740Z,1.50
2019-01-27T12:38:58.419Z,1.55
2019-01-27T12:41:30.028Z,1.20
2019-01-27T12:44:23.770Z,1.40
2019-01-27T12:47:36.611Z,1.50
2019-01-27T12:50:49.836Z,1.40
2019-01-27T12:53:17.479Z,1.60
2019-01-27T12:55:50.781Z,1.60
2019-01-27T12:58:38.356Z,1.50
2019-01-27T13:01:13.965Z,1.32
2019-01-27T13:03:45.566Z,1.32
2019-01-27T13:06:17.055Z,1.60
2019-01-27T13:08:48.730Z,1.60
2019-01-27T13:11:20.306Z,1.37
2019-01-27T13:13:51.908Z,1.77
2019-01-27T13:16:23.602Z,1.90
2019-01-27T13:18:56.347Z,1.30
2019-01-27T13:21:34.472Z,1.60
2019-01-27T13:24:07.455Z,1.50
2019-01-27T13:27:03.419Z,1.45
2019-01-27T13:29:37.711Z,1.80
2019-01-27T13:32:34.488Z,1.80
2019-01-27T13:35:25.614Z,1.98
2019-01-27T13:38:16.571Z,1.50
2019-01-27T13:46:26.280Z,1.40
2019-01-27T13:51:58.774Z,1.40
2019-01-27T13:54:42.771Z,1.35
2019-01-27T13:57:46.178Z,1.90
2019-01-27T14:00:40.068Z,1.50
2019-01-27T14:03:24.987Z,1.40
2019-01-27T14:06:30.478Z,1.22
2019-01-27T14:09:22.327Z,1.50
2019-01-27T14:16:41.980Z,1.55
2019-01-27T14:19:48.554Z,2.15
2019-01-27T14:23:10.494Z,2.37
2019-01-27T14:26:28.604Z,1.30
2019-01-27T14:33:31.926Z,1.30
2019-01-27T14:40:29.219Z,1.40
2019-01-27T14:51:29.557Z,1.57
2019-01-27T14:54:04.985Z,1.25
2019-01-27T14:57:01.013Z,1.20
2019-01-27T15:00:01.028Z,1.25
2019-01-27T15:02:34.917Z,1.25
2019-01-27T15:13:26.206Z,1.50
2019-01-27T15:15:58.056Z,1.50
2019-01-27T15:20:43.098Z,1.70
2019-01-27T15:24:05.428Z,1.60
2019-01-27T15:27:50.024Z,3.02
2019-01-27T15:39:11.458Z,1.70
2019-01-27T15:42:32.739Z,1.70
2019-01-27T15:45:47.909Z,1.70
2019-01-27T15:48:43.240Z,1.40
2019-01-27T15:51:31.309Z,1.60
2019-01-27T15:54:09.320Z,1.93
2019-01-27T15:56:57.717Z,1.70
2019-01-27T16:00:15.534Z,1.80
2019-01-27T16:06:47.906Z,1.60
2019-01-27T16:10:36.312Z,1.40
2019-01-27T16:18:30.453Z,1.70
2019-01-27T16:22:07.863Z,1.50
2019-01-27T16:25:25.963Z,1.60
2019-01-27T16:28:35.780Z,1.55
2019-01-27T16:31:45.186Z,1.70
2019-01-27T16:35:18.072Z,1.47
2019-01-27T16:39:01.494Z,1.60
2019-01-27T16:42:59.769Z,1.65
2019-01-27T16:49:32.035Z,1.52
2019-01-27T16:57:17.091Z,1.45
2019-01-27T17:02:31.644Z,1.32
2019-01-27T17:04:19.949Z,1.20
2019-01-27T17:08:21.414Z,1.40
2019-01-27T17:11:34.359Z,1.25
2019-01-27T17:14:54.834Z,1.25
2019-01-27T17:18:13.348Z,1.70
2019-01-27T17:21:03.025Z,1.30
2019-01-27T17:23:36.841Z,1.70
2019-01-27T17:26:15.915Z,1.55
2019-01-27T17:28:48.939Z,1.40
2019-01-27T17:31:27.404Z,1.70
2019-01-27T17:34:08.263Z,1.40
2019-01-27T17:36:47.761Z,1.67
2019-01-27T17:39:44.991Z,1.47
2019-01-27T17:42:21.690Z,1.30
2019-01-27T17:44:58.736Z,1.50
2019-01-27T17:47:35.955Z,1.90
2019-01-27T17:50:23.303Z,2.20
2019-01-27T17:53:03.699Z,1.40
2019-01-27T17:55:44.550Z,1.70
2019-01-27T17:59:12.109Z,1.70
2019-01-27T18:02:32.142Z,1.37
2019-01-27T18:09:16.688Z,1.80
2019-01-27T18:12:00.677Z,1.65
2019-01-27T18:14:40.374Z,1.82
2019-01-27T18:17:17.380Z,2.00
2019-01-27T18:19:54.781Z,1.47
2019-01-27T18:22:31.302Z,1.72
2019-01-27T18:25:05.124Z,1.40
2019-01-27T18:27:51.970Z,1.82
2019-01-27T18:30:35.373Z,1.92
2019-01-27T18:33:16.484Z,2.27
2019-01-27T18:35:53.142Z,1.77
2019-01-27T18:38:30.198Z,2.60
2019-01-27T18:41:11.377Z,2.17
2019-01-27T18:44:02.272Z,1.40
2019-01-27T18:46:34.245Z,1.70
2019-01-27T18:49:06.532Z,1.62
2019-01-27T18:51:38.688Z,1.72
2019-01-27T18:54:28.766Z,1.72
2019-01-27T18:57:31.461Z,1.40
2019-01-27T19:00:14.079Z,1.90
2019-01-27T19:03:17.481Z,1.85
2019-01-27T19:05:58.141Z,1.55
2019-01-27T19:08:54.743Z,2.40
2019-01-27T19:11:42.691Z,1.95
2019-01-27T19:14:23.703Z,1.60
2019-01-27T19:17:17.041Z,1.65
2019-01-27T19:20:25.406Z,1.40
2019-01-27T19:23:08.987Z,1.98
2019-01-27T19:25:50.049Z,2.10
2019-01-27T19:28:35.230Z,1.52
2019-01-27T19:31:31.706Z,1.80
2019-01-27T19:34:37.177Z,1.80
2019-01-27T19:37:27.375Z,2.30
2019-01-27T19:40:10.079Z,2.30
2019-01-27T19:42:52.465Z,4.78
2019-01-27T19:45:49.150Z,4.25
2019-01-27T19:48:33.225Z,2.30
2019-01-27T19:51:15.998Z,2.62
2019-01-27T19:54:05.233Z,3.05
2019-01-27T19:56:56.791Z,2.92
2019-01-27T19:59:45.849Z,3.30
2019-01-27T20:02:39.231Z,2.80
2019-01-27T20:05:28.120Z,2.35
2019-01-27T20:08:21.586Z,2.50
2019-01-27T20:11:18.179Z,2.62
2019-01-27T20:14:20.665Z,3.70
2019-01-27T20:17:05.510Z,2.70
2019-01-27T20:19:45.251Z,1.90
2019-01-27T20:22:28.260Z,1.92
2019-01-27T20:25:18.329Z,1.40
2019-01-27T20:28:09.290Z,1.30
2019-01-27T20:30:59.605Z,1.60
2019-01-27T20:34:08.146Z,1.22
2019-01-27T20:36:57.303Z,1.30
2019-01-27T20:39:40.746Z,1.20
2019-01-27T20:42:33.876Z,1.77
2019-01-27T20:45:25.785Z,1.40
2019-01-27T20:48:16.623Z,1.47
2019-01-27T20:51:07.899Z,1.50
2019-01-27T20:53:54.127Z,1.30
2019-01-27T20:56:36.523Z,1.17
2019-01-27T20:59:29.155Z,1.40
2019-01-27T21:02:29.344Z,1.40
2019-01-27T21:05:08.754Z,1.40
2019-01-27T21:07:56.517Z,1.20
2019-01-27T21:10:52.963Z,1.50
2019-01-27T21:13:31.299Z,1.40
2019-01-27T21:16:15.297Z,1.87
2019-01-27T21:19:05.646Z,1.82
2019-01-27T21:21:37.115Z,2.10
2019-01-27T21:24:08.633Z,2.12
2019-01-27T21:26:40.158Z,1.75
2019-01-27T21:29:12.828Z,1.80
2019-01-27T21:31:47.432Z,1.90
2019-01-27T21:34:24.327Z,2.05
2019-01-27T21:36:56.074Z,1.80
2019-01-27T21:39:28.587Z,1.60
2019-01-27T21:42:00.122Z,1.50
2019-01-27T21:44:31.623Z,1.70
2019-01-27T21:47:03.221Z,1.67
2019-01-27T21:49:34.792Z,1.87
2019-01-27T21:52:08.436Z,1.90
2019-01-27T21:54:40.889Z,2.17
2019-01-27T21:57:14.934Z,2.10
2019-01-27T21:59:48.911Z,1.92
2019-01-27T22:02:22.753Z,2.00
2019-01-27T22:04:55.206Z,2.10
2019-01-27T22:07:27.397Z,2.00
2019-01-27T22:10:01.035Z,2.25
2019-01-27T22:12:32.910Z,1.75
2019-01-27T22:15:05.336Z,2.40
2019-01-27T22:17:36.875Z,2.15
2019-01-27T22:20:10.877Z,2.10
2019-01-27T22:22:42.382Z,2.20
2019-01-27T22:25:15.209Z,2.50
2019-01-27T22:27:46.747Z,2.27
2019-01-27T22:30:20.901Z,2.15
2019-01-27T22:32:52.341Z,1.92
2019-01-27T22:35:23.916Z,1.95
2019-01-27T22:37:55.473Z,2.30
2019-01-27T22:40:27.012Z,1.92
2019-01-27T22:42:58.443Z,2.03
2019-01-27T22:45:30.008Z,2.42
2019-01-27T22:48:01.516Z,2.85
2019-01-27T22:50:33.003Z,2.70
2019-01-27T22:53:04.570Z,2.42
2019-01-27T22:55:36.038Z,2.40
2019-01-27T22:58:07.510Z,2.50
2019-01-27T23:01:05.105Z,2.90
2019-01-27T23:03:48.808Z,3.45
2019-01-27T23:06:20.574Z,2.80
2019-01-27T23:08:52.141Z,2.90
2019-01-27T23:11:23.639Z,3.25
2019-01-27T23:13:55.070Z,3.52
2019-01-27T23:16:28.485Z,3.75
2019-01-27T23:19:00.553Z,2.83
2019-01-27T23:21:32.020Z,3.30
2019-01-27T23:24:03.459Z,2.80
2019-01-27T23:26:35.098Z,3.40
2019-01-27T23:29:06.562Z,3.00
2019-01-27T23:31:37.914Z,3.27
2019-01-27T23:34:09.382Z,3.50
2019-01-27T23:36:40.791Z,3.45
2019-01-27T23:39:12.309Z,3.60
2019-01-27T23:41:44.059Z,3.00
2019-01-27T23:44:15.527Z,3.17
2019-01-27T23:46:47.084Z,3.45
2019-01-27T23:49:18.593Z,3.05
2019-01-27T23:51:50.077Z,3.10
2019-01-27T23:54:21.566Z,3.30
2019-01-27T23:56:53.116Z,3.10
2019-01-27T23:59:24.663Z,3.02
